LDRI/RJK METAR and TAF weather

Enter ICAO airport designator
Station Type Date Time Source
LDRI METAR 2022/11/30 17:00 UTC NOAA

LDRI 301700Z 05013G23KT 010V110 9999 FEW045 08/M01 Q1016


Station Type Date Time Source
LDRI Decoded METAR 2022/11/30 17:00 UTC NOAA

Rijeka / Omisalj, Croatia (LDRI) 45-13N 014-35E
Nov 30, 2022 - 12:00 PM EST / 2022.11.30 1700 UTC
Wind: from the NE (050 degrees) at 15 MPH (13 KT) gusting to 26 MPH (23 KT) (direction variable):0
Visibility: greater than 7 mile(s):0
Sky conditions: mostly clear
Temperature: 46 F (8 C)
Dew Point: 30 F (-1 C)
Relative Humidity: 52%
Pressure (altimeter): 30.00 in. Hg (1016 hPa)
ob: LDRI 301700Z 05013G23KT 010V110 9999 FEW045 08/M01 Q1016
cycle: 17

Station Type Date Time Source
LDRI TAF 2022/11/30 12:27 UTC NOAA

TAF LDRI 301125Z 3012/0112 06012KT 9999 FEW045 TX10/0111Z TN06/3022Z
TEMPO 3012/0112 06015G30KT PROB30
TEMPO 3012/0112 VRB08KT

Example: see airport list